createdAt,value
2022-07-29T00:00:22.180Z,6.15
2022-07-29T00:03:07.693Z,6.30
2022-07-29T00:13:36.836Z,6.18
2022-07-29T00:17:14.434Z,6.10
2022-07-29T00:21:37.860Z,6.30
2022-07-29T00:24:41.645Z,6.07
2022-07-29T00:28:05.923Z,6.13
2022-07-29T00:30:56.349Z,6.38
2022-07-29T00:34:05.253Z,6.57
2022-07-29T00:37:31.830Z,6.55
2022-07-29T00:40:18.643Z,6.30
2022-07-29T00:43:06.806Z,6.40
2022-07-29T00:45:41.679Z,6.47
2022-07-29T00:48:15.092Z,6.22
2022-07-29T00:50:56.409Z,6.07
2022-07-29T00:56:36.420Z,6.15
2022-07-29T00:59:18.414Z,6.53
2022-07-29T01:02:18.912Z,6.18
2022-07-29T01:04:54.829Z,6.40
2022-07-29T01:07:40.331Z,7.10
2022-07-29T01:14:33.830Z,6.53
2022-07-29T01:17:53.516Z,6.82
2022-07-29T01:31:13.412Z,7.10
2022-07-29T01:34:45.161Z,6.63
2022-07-29T01:37:42.729Z,6.53
2022-07-29T01:40:56.107Z,6.45
2022-07-29T01:43:53.705Z,6.75
2022-07-29T01:46:36.254Z,6.45
2022-07-29T01:49:47.919Z,6.50
2022-07-29T01:52:33.037Z,6.68
2022-07-29T01:55:19.236Z,6.65
2022-07-29T01:58:01.403Z,6.60
2022-07-29T02:00:37.270Z,6.60
2022-07-29T02:10:59.580Z,6.65
2022-07-29T02:25:37.604Z,6.60
2022-07-29T02:28:34.311Z,6.30
2022-07-29T02:35:10.047Z,6.13
2022-07-29T02:41:30.926Z,6.20
2022-07-29T02:44:32.610Z,6.40
2022-07-29T02:47:45.910Z,6.30
2022-07-29T02:54:28.863Z,6.20
2022-07-29T02:57:54.104Z,6.80
2022-07-29T03:00:29.667Z,6.53
2022-07-29T03:03:26.678Z,6.47
2022-07-29T03:06:28.192Z,6.85
2022-07-29T03:09:13.588Z,6.57
2022-07-29T03:11:50.693Z,6.75
2022-07-29T03:14:28.077Z,6.75
2022-07-29T03:20:35.281Z,6.60
2022-07-29T03:23:35.231Z,6.90
2022-07-29T03:26:11.921Z,6.70
2022-07-29T03:29:01.638Z,7.68
2022-07-29T03:32:25.251Z,6.93
2022-07-29T03:34:58.770Z,7.00
2022-07-29T03:40:50.331Z,6.85
2022-07-29T03:43:49.816Z,6.93
2022-07-29T03:46:35.675Z,6.60
2022-07-29T03:49:45.078Z,7.22
2022-07-29T03:53:05.568Z,6.97
2022-07-29T03:55:46.453Z,6.72
2022-07-29T03:58:41.928Z,7.25
2022-07-29T04:01:21.977Z,6.82
2022-07-29T04:04:29.257Z,7.13
2022-07-29T04:11:28.335Z,7.10
2022-07-29T04:14:09.228Z,7.30
2022-07-29T04:16:43.161Z,7.13
2022-07-29T04:19:18.333Z,7.05
2022-07-29T04:25:10.038Z,7.03
2022-07-29T04:28:03.359Z,7.00
2022-07-29T04:31:33.735Z,6.97
2022-07-29T04:34:54.097Z,6.28
2022-07-29T04:37:26.507Z,6.68
2022-07-29T04:40:15.884Z,6.90
2022-07-29T04:42:58.673Z,6.78
2022-07-29T04:45:34.477Z,6.13
2022-07-29T04:51:49.026Z,6.22
2022-07-29T04:58:13.504Z,6.15
2022-07-29T05:00:54.548Z,6.43
2022-07-29T05:03:26.660Z,6.03
2022-07-29T05:05:58.421Z,6.10
2022-07-29T05:08:28.049Z,5.68
2022-07-29T05:11:11.806Z,5.88
2022-07-29T05:13:54.897Z,6.38
2022-07-29T05:16:32.663Z,6.15
2022-07-29T05:20:00.376Z,6.32
2022-07-29T05:22:59.339Z,6.50
2022-07-29T05:25:40.793Z,5.60
2022-07-29T05:28:17.271Z,5.63
2022-07-29T05:30:58.121Z,6.00
2022-07-29T05:33:34.969Z,5.85
2022-07-29T05:36:17.627Z,5.63
2022-07-29T05:38:55.447Z,5.90
2022-07-29T05:41:43.451Z,5.75
2022-07-29T05:45:14.218Z,5.63
2022-07-29T05:48:07.450Z,6.10
2022-07-29T05:50:37.102Z,5.97
2022-07-29T05:57:54.842Z,5.93
2022-07-29T06:00:45.002Z,6.07
2022-07-29T06:03:20.329Z,5.82
2022-07-29T06:06:27.671Z,5.60
2022-07-29T06:09:12.590Z,5.60
2022-07-29T06:11:46.311Z,6.03
2022-07-29T06:14:59.998Z,5.88
2022-07-29T06:17:38.257Z,5.95
2022-07-29T06:20:35.799Z,5.70
2022-07-29T06:51:39.496Z,5.70
2022-07-29T06:54:10.850Z,5.88
2022-07-29T07:22:39.048Z,5.70
2022-07-29T07:53:27.946Z,6.18
2022-07-29T07:56:12.481Z,6.03
2022-07-29T07:59:16.051Z,5.88
2022-07-29T08:01:55.764Z,5.93
2022-07-29T08:04:55.740Z,5.90
2022-07-29T08:07:33.298Z,5.60
2022-07-29T08:10:38.924Z,5.60
2022-07-29T08:16:41.006Z,5.40
2022-07-29T08:22:48.683Z,5.18
2022-07-29T08:29:27.031Z,5.43
2022-07-29T08:32:54.464Z,5.25
2022-07-29T08:35:37.309Z,5.55
2022-07-29T08:41:44.661Z,5.10
2022-07-29T08:45:00.845Z,5.00
2022-07-29T08:47:55.251Z,5.05
2022-07-29T08:51:04.322Z,5.20
2022-07-29T08:57:37.629Z,5.22
2022-07-29T09:00:31.666Z,5.15
2022-07-29T09:03:10.203Z,4.82
2022-07-29T09:06:03.027Z,5.28
2022-07-29T09:08:43.104Z,5.22
2022-07-29T09:16:52.371Z,4.63
2022-07-29T09:23:36.474Z,4.90
2022-07-29T09:33:02.372Z,5.35
2022-07-29T10:04:08.514Z,5.30
2022-07-29T10:12:07.413Z,4.60
2022-07-29T10:30:04.897Z,4.10
2022-07-29T10:33:23.770Z,3.50
2022-07-29T10:41:51.007Z,3.88
2022-07-29T10:44:37.612Z,4.00
2022-07-29T11:23:34.011Z,3.10
2022-07-29T11:38:36.338Z,3.60
2022-07-29T11:42:13.657Z,3.53
2022-07-29T11:45:43.639Z,3.60
2022-07-29T11:52:03.391Z,3.80
2022-07-29T12:05:52.116Z,4.47
2022-07-29T12:08:23.225Z,4.20
2022-07-29T12:11:04.525Z,3.83
2022-07-29T12:19:01.966Z,4.18
2022-07-29T12:35:00.621Z,4.15
2022-07-29T12:37:44.121Z,4.40
2022-07-29T12:58:16.747Z,4.10
2022-07-29T13:01:47.429Z,4.57
2022-07-29T13:32:52.794Z,4.22
2022-07-29T13:49:05.156Z,4.75
2022-07-29T14:44:33.736Z,5.13
2022-07-29T14:53:02.672Z,4.63
2022-07-29T16:53:33.070Z,5.53
2022-07-29T17:43:22.831Z,5.50
2022-07-29T17:47:38.442Z,5.50
2022-07-29T18:47:13.090Z,5.45
2022-07-29T18:54:21.694Z,5.97
2022-07-29T18:57:53.314Z,5.40
2022-07-29T19:00:07.217Z,5.88
2022-07-29T19:02:45.770Z,5.53
2022-07-29T19:05:50.373Z,5.32
2022-07-29T19:09:04.849Z,4.78
2022-07-29T19:16:13.760Z,5.30
2022-07-29T19:19:11.150Z,5.07
2022-07-29T19:21:51.644Z,5.18
2022-07-29T19:24:26.593Z,5.28
2022-07-29T19:27:01.845Z,5.05
2022-07-29T19:29:47.599Z,4.72
2022-07-29T19:32:25.049Z,4.90
2022-07-29T19:35:24.645Z,4.53
2022-07-29T19:38:11.668Z,5.10
2022-07-29T19:40:47.892Z,5.05
2022-07-29T19:43:50.888Z,5.13
2022-07-29T19:46:15.225Z,5.38
2022-07-29T19:48:45.867Z,5.00
2022-07-29T19:51:21.316Z,5.30
2022-07-29T19:54:01.594Z,5.40
2022-07-29T19:56:45.392Z,5.80
2022-07-29T19:59:17.424Z,5.28
2022-07-29T20:02:00.393Z,5.43
2022-07-29T20:04:29.645Z,5.60
2022-07-29T20:07:03.752Z,5.65
2022-07-29T20:09:33.659Z,5.85
2022-07-29T20:12:04.962Z,6.38
2022-07-29T20:14:35.431Z,5.95
2022-07-29T20:17:13.662Z,5.82
2022-07-29T20:19:46.306Z,5.50
2022-07-29T20:22:21.550Z,5.80
2022-07-29T20:24:56.253Z,5.28
2022-07-29T20:27:25.632Z,6.68
2022-07-29T20:29:55.094Z,7.03
2022-07-29T20:32:23.847Z,6.97
2022-07-29T20:34:53.890Z,5.93
2022-07-29T20:37:24.900Z,6.15
2022-07-29T20:39:54.055Z,6.20
2022-07-29T20:42:23.136Z,5.90
2022-07-29T20:44:54.203Z,6.03
2022-07-29T20:47:27.072Z,6.03
2022-07-29T20:49:58.491Z,6.25
2022-07-29T20:52:31.657Z,6.03
2022-07-29T20:55:04.049Z,6.00
2022-07-29T20:57:40.252Z,6.80
2022-07-29T21:01:05.255Z,6.80
2022-07-29T21:03:37.084Z,6.88
2022-07-29T21:06:09.437Z,6.13
2022-07-29T21:09:01.943Z,6.65
2022-07-29T21:11:44.038Z,6.50
2022-07-29T21:14:20.825Z,6.65
2022-07-29T21:16:50.572Z,7.75
2022-07-29T21:19:24.567Z,7.55
2022-07-29T21:21:56.815Z,6.63
2022-07-29T21:24:38.836Z,6.72
2022-07-29T21:27:24.998Z,7.13
2022-07-29T21:29:54.655Z,6.40
2022-07-29T21:32:27.554Z,6.82
2022-07-29T21:34:59.949Z,6.15
2022-07-29T21:37:29.021Z,6.88
2022-07-29T21:40:00.256Z,6.88
2022-07-29T21:42:30.217Z,7.32
2022-07-29T21:44:59.425Z,6.65
2022-07-29T21:47:29.983Z,7.05
2022-07-29T21:50:00.858Z,7.53
2022-07-29T21:52:29.618Z,7.88
2022-07-29T21:55:08.247Z,7.00
2022-07-29T21:57:39.732Z,6.72
2022-07-29T22:00:14.659Z,8.63
2022-07-29T22:02:43.556Z,5.45
2022-07-29T22:05:12.638Z,5.15
2022-07-29T22:07:54.429Z,5.03
2022-07-29T22:10:28.042Z,4.70
2022-07-29T22:12:58.318Z,4.45
2022-07-29T22:15:33.592Z,4.00
2022-07-29T22:18:05.162Z,4.30
2022-07-29T22:20:34.035Z,4.50
2022-07-29T22:23:03.912Z,4.20
2022-07-29T22:25:34.999Z,3.80
2022-07-29T22:28:03.828Z,4.15
2022-07-29T22:30:32.703Z,4.35
2022-07-29T22:33:04.463Z,4.50
2022-07-29T22:35:33.402Z,4.57
2022-07-29T22:38:02.311Z,4.65
2022-07-29T22:40:33.791Z,4.45
2022-07-29T22:43:02.766Z,4.07
2022-07-29T22:45:31.441Z,4.40
2022-07-29T22:48:01.731Z,4.10
2022-07-29T22:50:32.226Z,4.10
2022-07-29T22:53:00.944Z,4.57
2022-07-29T22:55:29.738Z,4.30
2022-07-29T22:58:04.333Z,4.13
2022-07-29T23:00:33.001Z,4.38
2022-07-29T23:03:02.082Z,4.40
2022-07-29T23:05:31.207Z,4.40
2022-07-29T23:07:59.627Z,4.28
2022-07-29T23:10:30.370Z,4.43
2022-07-29T23:13:14.030Z,4.60
2022-07-29T23:15:50.968Z,4.20
2022-07-29T23:18:20.773Z,4.32
2022-07-29T23:20:49.707Z,4.25
2022-07-29T23:23:23.088Z,4.28
2022-07-29T23:25:51.783Z,4.38
2022-07-29T23:28:22.177Z,4.38
2022-07-29T23:30:56.234Z,4.35
2022-07-29T23:33:27.215Z,4.40
2022-07-29T23:35:58.419Z,4.07
2022-07-29T23:38:31.465Z,4.60
2022-07-29T23:41:01.737Z,4.05
2022-07-29T23:43:32.332Z,4.35
2022-07-29T23:46:01.365Z,4.50
2022-07-29T23:48:33.420Z,4.55
2022-07-29T23:51:02.066Z,4.07
2022-07-29T23:53:30.666Z,4.90
2022-07-29T23:55:59.590Z,5.07
2022-07-29T23:58:28.455Z,4.47
